Aérodrome :
LOGIN :

S'inscrire | Disclaimer

   EN    FR    IT 

 










Légende :    VFR   VFR Marginal   IFR   IFR Intensif   IFR Très Intensif
Visi : 
Plafond : 
>= 8 km
>= 3000ft
5 à 8 km
1000 à 3000 ft
1500m à 5 km
500 à 1000 ft
800 à 1500m
200 à 500 ft
< 800m
< 200 ft
Symboles :   Orages  Brouillard  Fortes neiges  Fortes précipitations  Vent > 20 kt
SIGMETs :   Divers  Orages  Givrage  Turbulence  Onde Orograph.  Cendres Volcan.







- Altitude de l'aérodrome : 24 ft
- Code IATA : SGD


EKSB - Sonderborg

DERNIER METAR :
  • 221550Z 26006KT 240V300 9999 SCT040 09/06 Q1028

METARs EXPIRÉS :
  • 221520Z 30007KT 270V330 9999 SCT040 11/05 Q1028
  • 221450Z 28009KT 240V320 9999 SCT040 11/05 Q1028
  • 221420Z 29010KT 260V320 9999 SCT040 12/04 Q1027
  • 221350Z 30014KT 260V330 9999 SCT040 12/03 Q1028
  • 221320Z 30012KT 270V330 9999 SCT040 11/04 Q1028

TAF TAF EKSB
Valide du 22 à 15h jusqu'au 22 à 22h UTC


221451Z 2215/2222 30010KT 9999 SCT040
Pas de NOTAMs connus pour ce terrain.
1 SIGMET publié pour la FIR Kobenhavn (EKDK) :
 
Turbulence forte
EKDK SIGMET 2 VALID 221530/221730 EKMI
EKDK KOBENHAVN FIR SEV TURB OBS AT 1530Z WI N5757 E01056 - N5449 E00946 - N5500 E00510 - N5658 E00544 - N5658 E00727 - N5829 E01030 - N5757 E01056 FL260/380 WKN FCST AT 1730Z WI N5602 E01237 - N5426 E01151 - N5500 E00723 - N5721 E00812 - N5829 E01030 - N5602 E01237=



MET'MAP, la Météo Aéronautique d'un coup d'oeil ! - Copyright ORBIFLY Décembre 2007 - Disclaimer

ORBIFLY MET'MAP TEAM :

Programmation & Développement : Alexandra Zaïnal
Conception & Développement : Baudouin d'Aumeries
Co-Programmation & Développement : Marc-Olivier Méhu
Soutien technique & logistique : Manuel Goepfert

Contact : metmap@orbifly.com




SOURCES & CREDITS :

   NOAA